sensor_id;sensor_type;location;lat;lon;timestamp;P1;durP1;ratioP1;P2;durP2;ratioP2
14268;SDS011;7218;51.480;7.006;2023-03-01T00:01:29;8.38;;;6.50;;
14268;SDS011;7218;51.480;7.006;2023-03-01T00:03:56;9.50;;;6.90;;
14268;SDS011;7218;51.480;7.006;2023-03-01T00:06:24;8.52;;;6.25;;
14268;SDS011;7218;51.480;7.006;2023-03-01T00:08:52;10.98;;;6.20;;
14268;SDS011;7218;51.480;7.006;2023-03-01T00:11:21;7.78;;;6.10;;
14268;SDS011;7218;51.480;7.006;2023-03-01T00:13:49;7.97;;;6.18;;
14268;SDS011;7218;51.480;7.006;2023-03-01T00:16:19;7.75;;;5.90;;
14268;SDS011;7218;51.480;7.006;2023-03-01T00:18:47;8.85;;;5.82;;
14268;SDS011;7218;51.480;7.006;2023-03-01T00:21:13;7.15;;;6.07;;
14268;SDS011;7218;51.480;7.006;2023-03-01T00:23:40;9.88;;;6.47;;
14268;SDS011;7218;51.480;7.006;2023-03-01T00:26:07;7.95;;;5.88;;
14268;SDS011;7218;51.480;7.006;2023-03-01T00:28:36;8.30;;;6.30;;
14268;SDS011;7218;51.480;7.006;2023-03-01T00:31:03;9.30;;;6.47;;
14268;SDS011;7218;51.480;7.006;2023-03-01T00:33:30;9.25;;;6.20;;
14268;SDS011;7218;51.480;7.006;2023-03-01T00:35:57;9.40;;;6.45;;
14268;SDS011;7218;51.480;7.006;2023-03-01T00:38:24;9.70;;;6.28;;
14268;SDS011;7218;51.480;7.006;2023-03-01T00:40:50;8.90;;;6.07;;
14268;SDS011;7218;51.480;7.006;2023-03-01T00:43:17;9.93;;;6.20;;
14268;SDS011;7218;51.480;7.006;2023-03-01T00:45:45;8.60;;;5.97;;
14268;SDS011;7218;51.480;7.006;2023-03-01T00:48:12;8.00;;;6.20;;
14268;SDS011;7218;51.480;7.006;2023-03-01T00:50:39;7.18;;;5.55;;
14268;SDS011;7218;51.480;7.006;2023-03-01T00:53:05;7.03;;;5.90;;
14268;SDS011;7218;51.480;7.006;2023-03-01T00:55:32;7.53;;;5.85;;
14268;SDS011;7218;51.480;7.006;2023-03-01T00:57:58;7.85;;;5.72;;
14268;SDS011;7218;51.480;7.006;2023-03-01T01:00:25;9.27;;;6.47;;
14268;SDS011;7218;51.480;7.006;2023-03-01T01:02:53;8.02;;;5.85;;
14268;SDS011;7218;51.480;7.006;2023-03-01T01:05:20;9.05;;;6.40;;
14268;SDS011;7218;51.480;7.006;2023-03-01T01:07:46;9.10;;;6.07;;
14268;SDS011;7218;51.480;7.006;2023-03-01T01:10:14;8.02;;;6.07;;
14268;SDS011;7218;51.480;7.006;2023-03-01T01:12:45;7.38;;;6.20;;
14268;SDS011;7218;51.480;7.006;2023-03-01T01:15:12;9.10;;;6.22;;
14268;SDS011;7218;51.480;7.006;2023-03-01T01:17:41;8.07;;;5.83;;
14268;SDS011;7218;51.480;7.006;2023-03-01T01:20:10;8.77;;;6.63;;
14268;SDS011;7218;51.480;7.006;2023-03-01T01:22:37;10.32;;;6.78;;
14268;SDS011;7218;51.480;7.006;2023-03-01T01:25:04;9.63;;;6.60;;
14268;SDS011;7218;51.480;7.006;2023-03-01T01:27:31;8.30;;;6.40;;
14268;SDS011;7218;51.480;7.006;2023-03-01T01:29:57;8.95;;;6.40;;
14268;SDS011;7218;51.480;7.006;2023-03-01T01:32:23;8.95;;;6.50;;
14268;SDS011;7218;51.480;7.006;2023-03-01T01:34:50;8.75;;;6.30;;
14268;SDS011;7218;51.480;7.006;2023-03-01T01:37:18;7.85;;;6.40;;
14268;SDS011;7218;51.480;7.006;2023-03-01T01:39:44;11.77;;;6.60;;
14268;SDS011;7218;51.480;7.006;2023-03-01T01:42:12;8.63;;;6.40;;
14268;SDS011;7218;51.480;7.006;2023-03-01T01:44:42;8.80;;;6.55;;
14268;SDS011;7218;51.480;7.006;2023-03-01T01:47:12;7.68;;;6.10;;
14268;SDS011;7218;51.480;7.006;2023-03-01T01:49:42;7.63;;;6.35;;
14268;SDS011;7218;51.480;7.006;2023-03-01T01:52:13;10.70;;;6.90;;
14268;SDS011;7218;51.480;7.006;2023-03-01T01:54:44;9.25;;;6.53;;
14268;SDS011;7218;51.480;7.006;2023-03-01T01:57:14;7.88;;;6.32;;
14268;SDS011;7218;51.480;7.006;2023-03-01T01:59:45;7.05;;;5.93;;
14268;SDS011;7218;51.480;7.006;2023-03-01T02:02:17;8.80;;;6.50;;
14268;SDS011;7218;51.480;7.006;2023-03-01T02:04:44;10.73;;;6.53;;
14268;SDS011;7218;51.480;7.006;2023-03-01T02:07:15;9.73;;;6.78;;
14268;SDS011;7218;51.480;7.006;2023-03-01T02:09:45;9.43;;;6.38;;
14268;SDS011;7218;51.480;7.006;2023-03-01T02:12:13;10.05;;;6.68;;
14268;SDS011;7218;51.480;7.006;2023-03-01T02:14:41;7.85;;;6.72;;
14268;SDS011;7218;51.480;7.006;2023-03-01T02:17:07;8.88;;;6.78;;
14268;SDS011;7218;51.480;7.006;2023-03-01T02:19:39;10.77;;;6.47;;
14268;SDS011;7218;51.480;7.006;2023-03-01T02:22:16;7.25;;;6.18;;
14268;SDS011;7218;51.480;7.006;2023-03-01T02:24:52;7.55;;;6.18;;
14268;SDS011;7218;51.480;7.006;2023-03-01T02:27:28;7.38;;;6.35;;
14268;SDS011;7218;51.480;7.006;2023-03-01T02:30:04;9.38;;;6.40;;
14268;SDS011;7218;51.480;7.006;2023-03-01T02:32:32;9.25;;;6.68;;
14268;SDS011;7218;51.480;7.006;2023-03-01T02:34:59;9.07;;;6.93;;
14268;SDS011;7218;51.480;7.006;2023-03-01T02:37:26;7.65;;;6.80;;
14268;SDS011;7218;51.480;7.006;2023-03-01T02:39:54;9.23;;;6.63;;
14268;SDS011;7218;51.480;7.006;2023-03-01T02:42:26;9.02;;;7.25;;
14268;SDS011;7218;51.480;7.006;2023-03-01T02:44:54;10.15;;;7.07;;
14268;SDS011;7218;51.480;7.006;2023-03-01T02:47:22;11.93;;;7.45;;
14268;SDS011;7218;51.480;7.006;2023-03-01T02:49:48;9.88;;;7.20;;
14268;SDS011;7218;51.480;7.006;2023-03-01T02:52:27;10.50;;;7.70;;
14268;SDS011;7218;51.480;7.006;2023-03-01T02:55:03;10.10;;;7.28;;
14268;SDS011;7218;51.480;7.006;2023-03-01T02:57:33;9.82;;;6.80;;
14268;SDS011;7218;51.480;7.006;2023-03-01T03:00:03;9.70;;;7.20;;
14268;SDS011;7218;51.480;7.006;2023-03-01T03:02:34;8.90;;;7.43;;
14268;SDS011;7218;51.480;7.006;2023-03-01T03:05:04;8.88;;;7.10;;
14268;SDS011;7218;51.480;7.006;2023-03-01T03:07:34;10.20;;;7.20;;
14268;SDS011;7218;51.480;7.006;2023-03-01T03:10:03;12.13;;;7.00;;
14268;SDS011;7218;51.480;7.006;2023-03-01T03:12:30;11.27;;;7.10;;
14268;SDS011;7218;51.480;7.006;2023-03-01T03:14:57;9.73;;;7.63;;
14268;SDS011;7218;51.480;7.006;2023-03-01T03:17:23;11.85;;;7.22;;
14268;SDS011;7218;51.480;7.006;2023-03-01T03:19:51;8.98;;;7.35;;
14268;SDS011;7218;51.480;7.006;2023-03-01T03:22:18;9.30;;;7.35;;
14268;SDS011;7218;51.480;7.006;2023-03-01T03:24:44;11.82;;;7.63;;
14268;SDS011;7218;51.480;7.006;2023-03-01T03:27:11;11.18;;;7.40;;
14268;SDS011;7218;51.480;7.006;2023-03-01T03:29:37;10.60;;;7.75;;
14268;SDS011;7218;51.480;7.006;2023-03-01T03:32:03;8.93;;;7.47;;
14268;SDS011;7218;51.480;7.006;2023-03-01T03:34:30;11.35;;;8.27;;
14268;SDS011;7218;51.480;7.006;2023-03-01T03:36:58;10.32;;;7.70;;
14268;SDS011;7218;51.480;7.006;2023-03-01T03:39:25;11.93;;;7.65;;
14268;SDS011;7218;51.480;7.006;2023-03-01T03:41:52;13.48;;;8.10;;
14268;SDS011;7218;51.480;7.006;2023-03-01T03:44:19;12.77;;;8.73;;
14268;SDS011;7218;51.480;7.006;2023-03-01T03:46:45;12.90;;;8.00;;
14268;SDS011;7218;51.480;7.006;2023-03-01T03:49:12;13.30;;;8.20;;
14268;SDS011;7218;51.480;7.006;2023-03-01T03:51:38;12.77;;;7.70;;
14268;SDS011;7218;51.480;7.006;2023-03-01T03:54:06;11.45;;;8.00;;
14268;SDS011;7218;51.480;7.006;2023-03-01T03:56:33;10.43;;;8.23;;
14268;SDS011;7218;51.480;7.006;2023-03-01T03:58:59;10.60;;;7.85;;
14268;SDS011;7218;51.480;7.006;2023-03-01T04:01:26;11.32;;;8.07;;
14268;SDS011;7218;51.480;7.006;2023-03-01T04:03:52;11.03;;;8.23;;
14268;SDS011;7218;51.480;7.006;2023-03-01T04:06:21;11.95;;;8.25;;
14268;SDS011;7218;51.480;7.006;2023-03-01T04:08:47;12.98;;;8.05;;
14268;SDS011;7218;51.480;7.006;2023-03-01T04:11:17;13.07;;;8.30;;
14268;SDS011;7218;51.480;7.006;2023-03-01T04:13:55;10.45;;;7.63;;
14268;SDS011;7218;51.480;7.006;2023-03-01T04:16:23;12.85;;;8.57;;
14268;SDS011;7218;51.480;7.006;2023-03-01T04:18:50;12.48;;;8.60;;
14268;SDS011;7218;51.480;7.006;2023-03-01T04:21:17;11.70;;;8.47;;
14268;SDS011;7218;51.480;7.006;2023-03-01T04:23:45;11.32;;;8.20;;
14268;SDS011;7218;51.480;7.006;2023-03-01T04:26:11;10.50;;;8.13;;
14268;SDS011;7218;51.480;7.006;2023-03-01T04:28:40;12.20;;;8.13;;
14268;SDS011;7218;51.480;7.006;2023-03-01T04:31:11;10.52;;;8.10;;
14268;SDS011;7218;51.480;7.006;2023-03-01T04:33:42;10.60;;;8.10;;
14268;SDS011;7218;51.480;7.006;2023-03-01T04:36:11;10.07;;;7.90;;
14268;SDS011;7218;51.480;7.006;2023-03-01T04:38:38;12.57;;;8.37;;
14268;SDS011;7218;51.480;7.006;2023-03-01T04:41:06;11.77;;;7.88;;
14268;SDS011;7218;51.480;7.006;2023-03-01T04:43:33;11.23;;;8.50;;
14268;SDS011;7218;51.480;7.006;2023-03-01T04:46:02;11.53;;;8.27;;
14268;SDS011;7218;51.480;7.006;2023-03-01T04:48:31;10.60;;;8.00;;
14268;SDS011;7218;51.480;7.006;2023-03-01T04:50:58;16.60;;;8.60;;
14268;SDS011;7218;51.480;7.006;2023-03-01T04:53:24;11.90;;;8.25;;
14268;SDS011;7218;51.480;7.006;2023-03-01T04:55:51;13.57;;;8.50;;
14268;SDS011;7218;51.480;7.006;2023-03-01T04:58:17;12.30;;;7.93;;
14268;SDS011;7218;51.480;7.006;2023-03-01T05:00:43;11.80;;;8.37;;
14268;SDS011;7218;51.480;7.006;2023-03-01T05:03:11;10.40;;;8.45;;
14268;SDS011;7218;51.480;7.006;2023-03-01T05:05:43;13.57;;;8.63;;
14268;SDS011;7218;51.480;7.006;2023-03-01T05:08:11;11.70;;;8.23;;
14268;SDS011;7218;51.480;7.006;2023-03-01T05:10:43;10.95;;;8.55;;
14268;SDS011;7218;51.480;7.006;2023-03-01T05:13:12;11.43;;;8.13;;
14268;SDS011;7218;51.480;7.006;2023-03-01T05:15:40;10.80;;;8.25;;
14268;SDS011;7218;51.480;7.006;2023-03-01T05:18:06;13.37;;;8.47;;
14268;SDS011;7218;51.480;7.006;2023-03-01T05:20:37;12.73;;;8.35;;
14268;SDS011;7218;51.480;7.006;2023-03-01T05:23:04;12.30;;;8.23;;
14268;SDS011;7218;51.480;7.006;2023-03-01T05:25:31;9.80;;;7.87;;
14268;SDS011;7218;51.480;7.006;2023-03-01T05:28:05;12.15;;;8.60;;
14268;SDS011;7218;51.480;7.006;2023-03-01T05:30:32;10.23;;;8.20;;
14268;SDS011;7218;51.480;7.006;2023-03-01T05:33:00;12.03;;;8.43;;
14268;SDS011;7218;51.480;7.006;2023-03-01T05:35:27;13.30;;;8.90;;
14268;SDS011;7218;51.480;7.006;2023-03-01T05:37:55;12.43;;;8.15;;
14268;SDS011;7218;51.480;7.006;2023-03-01T05:40:22;11.00;;;8.02;;
14268;SDS011;7218;51.480;7.006;2023-03-01T05:42:51;11.57;;;8.13;;
14268;SDS011;7218;51.480;7.006;2023-03-01T05:45:19;12.07;;;8.40;;
14268;SDS011;7218;51.480;7.006;2023-03-01T05:47:47;11.57;;;8.20;;
14268;SDS011;7218;51.480;7.006;2023-03-01T05:50:15;9.87;;;8.07;;
14268;SDS011;7218;51.480;7.006;2023-03-01T05:52:45;12.80;;;8.13;;
14268;SDS011;7218;51.480;7.006;2023-03-01T05:55:14;11.73;;;8.70;;
14268;SDS011;7218;51.480;7.006;2023-03-01T05:57:42;13.97;;;8.27;;
14268;SDS011;7218;51.480;7.006;2023-03-01T06:00:09;12.53;;;8.90;;
14268;SDS011;7218;51.480;7.006;2023-03-01T06:02:36;13.20;;;8.33;;
14268;SDS011;7218;51.480;7.006;2023-03-01T06:05:03;12.17;;;8.73;;
14268;SDS011;7218;51.480;7.006;2023-03-01T06:07:30;11.83;;;8.57;;
14268;SDS011;7218;51.480;7.006;2023-03-01T06:09:57;10.67;;;8.87;;
14268;SDS011;7218;51.480;7.006;2023-03-01T06:12:25;11.70;;;8.60;;
14268;SDS011;7218;51.480;7.006;2023-03-01T06:14:51;11.70;;;8.03;;
14268;SDS011;7218;51.480;7.006;2023-03-01T06:17:18;13.50;;;8.37;;
14268;SDS011;7218;51.480;7.006;2023-03-01T06:19:44;13.37;;;8.20;;
14268;SDS011;7218;51.480;7.006;2023-03-01T06:22:12;10.93;;;7.70;;
14268;SDS011;7218;51.480;7.006;2023-03-01T06:24:38;12.30;;;8.13;;
14268;SDS011;7218;51.480;7.006;2023-03-01T06:27:05;10.73;;;8.33;;
14268;SDS011;7218;51.480;7.006;2023-03-01T06:29:33;13.53;;;8.50;;
14268;SDS011;7218;51.480;7.006;2023-03-01T06:31:59;12.10;;;8.63;;
14268;SDS011;7218;51.480;7.006;2023-03-01T06:34:26;15.00;;;9.70;;
14268;SDS011;7218;51.480;7.006;2023-03-01T06:36:52;12.23;;;9.20;;
14268;SDS011;7218;51.480;7.006;2023-03-01T06:39:18;16.00;;;10.00;;
14268;SDS011;7218;51.480;7.006;2023-03-01T06:41:45;15.82;;;10.38;;
14268;SDS011;7218;51.480;7.006;2023-03-01T06:44:11;21.40;;;11.50;;
14268;SDS011;7218;51.480;7.006;2023-03-01T06:46:40;19.27;;;11.43;;
14268;SDS011;7218;51.480;7.006;2023-03-01T06:49:06;19.08;;;11.63;;
14268;SDS011;7218;51.480;7.006;2023-03-01T06:51:34;21.55;;;12.32;;
14268;SDS011;7218;51.480;7.006;2023-03-01T06:54:01;27.73;;;14.70;;
14268;SDS011;7218;51.480;7.006;2023-03-01T06:56:27;24.37;;;14.50;;
14268;SDS011;7218;51.480;7.006;2023-03-01T06:58:54;20.02;;;13.13;;
14268;SDS011;7218;51.480;7.006;2023-03-01T07:01:20;15.37;;;10.10;;
14268;SDS011;7218;51.480;7.006;2023-03-01T07:03:48;15.07;;;9.32;;
14268;SDS011;7218;51.480;7.006;2023-03-01T07:06:14;13.73;;;8.83;;
14268;SDS011;7218;51.480;7.006;2023-03-01T07:08:41;11.25;;;8.82;;
14268;SDS011;7218;51.480;7.006;2023-03-01T07:11:07;11.87;;;8.70;;
14268;SDS011;7218;51.480;7.006;2023-03-01T07:13:34;14.53;;;8.33;;
14268;SDS011;7218;51.480;7.006;2023-03-01T07:16:00;12.57;;;9.23;;
14268;SDS011;7218;51.480;7.006;2023-03-01T07:18:27;12.00;;;8.67;;
14268;SDS011;7218;51.480;7.006;2023-03-01T07:20:54;13.07;;;8.70;;
14268;SDS011;7218;51.480;7.006;2023-03-01T07:23:21;11.90;;;9.27;;
14268;SDS011;7218;51.480;7.006;2023-03-01T07:25:51;13.25;;;8.88;;
14268;SDS011;7218;51.480;7.006;2023-03-01T07:28:18;15.20;;;9.03;;
14268;SDS011;7218;51.480;7.006;2023-03-01T07:30:44;11.27;;;8.70;;
14268;SDS011;7218;51.480;7.006;2023-03-01T07:33:11;11.45;;;9.00;;
14268;SDS011;7218;51.480;7.006;2023-03-01T07:35:37;11.33;;;8.40;;
14268;SDS011;7218;51.480;7.006;2023-03-01T07:38:05;14.88;;;8.85;;
14268;SDS011;7218;51.480;7.006;2023-03-01T07:40:31;12.65;;;8.90;;
14268;SDS011;7218;51.480;7.006;2023-03-01T07:42:59;11.63;;;8.73;;
14268;SDS011;7218;51.480;7.006;2023-03-01T07:45:29;11.85;;;8.90;;
14268;SDS011;7218;51.480;7.006;2023-03-01T07:47:55;13.30;;;9.00;;
14268;SDS011;7218;51.480;7.006;2023-03-01T07:50:22;11.02;;;8.65;;
14268;SDS011;7218;51.480;7.006;2023-03-01T07:52:49;13.50;;;9.10;;
14268;SDS011;7218;51.480;7.006;2023-03-01T07:55:17;11.02;;;8.73;;
14268;SDS011;7218;51.480;7.006;2023-03-01T07:57:44;12.65;;;8.30;;
14268;SDS011;7218;51.480;7.006;2023-03-01T08:00:11;11.57;;;8.43;;
14268;SDS011;7218;51.480;7.006;2023-03-01T08:02:38;11.93;;;8.70;;
14268;SDS011;7218;51.480;7.006;2023-03-01T08:05:07;12.48;;;8.07;;
14268;SDS011;7218;51.480;7.006;2023-03-01T08:07:33;12.40;;;8.23;;
14268;SDS011;7218;51.480;7.006;2023-03-01T08:10:00;11.68;;;8.40;;
14268;SDS011;7218;51.480;7.006;2023-03-01T08:12:28;10.25;;;8.20;;
14268;SDS011;7218;51.480;7.006;2023-03-01T08:14:54;12.73;;;8.35;;
14268;SDS011;7218;51.480;7.006;2023-03-01T08:17:21;10.48;;;7.93;;
14268;SDS011;7218;51.480;7.006;2023-03-01T08:19:48;12.75;;;8.73;;
14268;SDS011;7218;51.480;7.006;2023-03-01T08:22:15;11.65;;;8.30;;
14268;SDS011;7218;51.480;7.006;2023-03-01T08:24:41;11.70;;;8.43;;
14268;SDS011;7218;51.480;7.006;2023-03-01T08:27:08;12.55;;;8.43;;
14268;SDS011;7218;51.480;7.006;2023-03-01T08:29:36;12.02;;;8.48;;
14268;SDS011;7218;51.480;7.006;2023-03-01T08:32:02;11.65;;;7.93;;
14268;SDS011;7218;51.480;7.006;2023-03-01T08:34:29;11.27;;;7.85;;
14268;SDS011;7218;51.480;7.006;2023-03-01T08:36:56;12.07;;;7.68;;
14268;SDS011;7218;51.480;7.006;2023-03-01T08:39:23;11.63;;;7.80;;
14268;SDS011;7218;51.480;7.006;2023-03-01T08:41:49;10.52;;;7.88;;
14268;SDS011;7218;51.480;7.006;2023-03-01T08:44:16;11.63;;;8.45;;
14268;SDS011;7218;51.480;7.006;2023-03-01T08:46:44;14.25;;;7.78;;
14268;SDS011;7218;51.480;7.006;2023-03-01T08:49:12;10.07;;;7.85;;
14268;SDS011;7218;51.480;7.006;2023-03-01T08:51:41;10.07;;;7.47;;
14268;SDS011;7218;51.480;7.006;2023-03-01T08:54:10;11.63;;;8.02;;
14268;SDS011;7218;51.480;7.006;2023-03-01T08:56:39;9.70;;;7.78;;
14268;SDS011;7218;51.480;7.006;2023-03-01T08:59:06;11.23;;;7.50;;
14268;SDS011;7218;51.480;7.006;2023-03-01T09:01:33;10.07;;;7.60;;
14268;SDS011;7218;51.480;7.006;2023-03-01T09:04:01;8.80;;;7.35;;
14268;SDS011;7218;51.480;7.006;2023-03-01T09:06:29;11.38;;;7.28;;
14268;SDS011;7218;51.480;7.006;2023-03-01T09:08:56;10.20;;;7.10;;
14268;SDS011;7218;51.480;7.006;2023-03-01T09:11:23;7.47;;;6.50;;
14268;SDS011;7218;51.480;7.006;2023-03-01T09:13:49;10.23;;;7.10;;
14268;SDS011;7218;51.480;7.006;2023-03-01T09:16:17;9.23;;;6.45;;
14268;SDS011;7218;51.480;7.006;2023-03-01T09:18:44;9.73;;;6.60;;
14268;SDS011;7218;51.480;7.006;2023-03-01T09:21:16;7.15;;;6.10;;
14268;SDS011;7218;51.480;7.006;2023-03-01T09:23:44;8.23;;;6.40;;
14268;SDS011;7218;51.480;7.006;2023-03-01T09:26:13;13.13;;;6.50;;
14268;SDS011;7218;51.480;7.006;2023-03-01T09:28:41;7.53;;;5.90;;
14268;SDS011;7218;51.480;7.006;2023-03-01T09:31:09;8.68;;;6.40;;
14268;SDS011;7218;51.480;7.006;2023-03-01T09:33:37;7.75;;;6.05;;
14268;SDS011;7218;51.480;7.006;2023-03-01T09:36:06;8.27;;;6.50;;
14268;SDS011;7218;51.480;7.006;2023-03-01T09:38:35;9.32;;;6.35;;
14268;SDS011;7218;51.480;7.006;2023-03-01T09:41:02;8.35;;;6.10;;
14268;SDS011;7218;51.480;7.006;2023-03-01T09:43:37;6.80;;;5.50;;
14268;SDS011;7218;51.480;7.006;2023-03-01T09:46:10;7.80;;;5.70;;
14268;SDS011;7218;51.480;7.006;2023-03-01T09:48:42;6.80;;;5.88;;
14268;SDS011;7218;51.480;7.006;2023-03-01T09:51:12;7.72;;;5.10;;
14268;SDS011;7218;51.480;7.006;2023-03-01T09:53:45;7.60;;;5.47;;
14268;SDS011;7218;51.480;7.006;2023-03-01T09:56:13;7.72;;;5.50;;
14268;SDS011;7218;51.480;7.006;2023-03-01T09:58:47;6.63;;;5.57;;
14268;SDS011;7218;51.480;7.006;2023-03-01T10:01:22;7.93;;;5.60;;
14268;SDS011;7218;51.480;7.006;2023-03-01T10:07:07;8.30;;;5.40;;
14268;SDS011;7218;51.480;7.006;2023-03-01T10:09:45;6.88;;;5.38;;
14268;SDS011;7218;51.480;7.006;2023-03-01T10:12:13;6.53;;;5.32;;
14268;SDS011;7218;51.480;7.006;2023-03-01T10:14:45;10.88;;;5.50;;
14268;SDS011;7218;51.480;7.006;2023-03-01T10:17:20;7.10;;;5.07;;
14268;SDS011;7218;51.480;7.006;2023-03-01T10:19:53;8.50;;;5.10;;
14268;SDS011;7218;51.480;7.006;2023-03-01T10:22:22;7.90;;;5.40;;
14268;SDS011;7218;51.480;7.006;2023-03-01T10:24:54;6.63;;;5.55;;
14268;SDS011;7218;51.480;7.006;2023-03-01T10:27:24;7.07;;;5.18;;
14268;SDS011;7218;51.480;7.006;2023-03-01T10:29:53;7.28;;;5.10;;
14268;SDS011;7218;51.480;7.006;2023-03-01T10:32:26;7.78;;;4.97;;
14268;SDS011;7218;51.480;7.006;2023-03-01T10:34:53;7.13;;;5.13;;
14268;SDS011;7218;51.480;7.006;2023-03-01T10:37:20;6.55;;;5.38;;
14268;SDS011;7218;51.480;7.006;2023-03-01T10:40:00;8.05;;;5.03;;
14268;SDS011;7218;51.480;7.006;2023-03-01T10:42:32;6.47;;;4.80;;
14268;SDS011;7218;51.480;7.006;2023-03-01T10:45:14;6.65;;;4.72;;
14268;SDS011;7218;51.480;7.006;2023-03-01T10:48:01;5.85;;;4.70;;
14268;SDS011;7218;51.480;7.006;2023-03-01T10:50:30;6.10;;;4.80;;
14268;SDS011;7218;51.480;7.006;2023-03-01T10:52:57;6.68;;;4.43;;
14268;SDS011;7218;51.480;7.006;2023-03-01T10:55:29;5.30;;;4.60;;
14268;SDS011;7218;51.480;7.006;2023-03-01T10:58:07;6.65;;;4.53;;
14268;SDS011;7218;51.480;7.006;2023-03-01T11:00:46;7.75;;;4.82;;
14268;SDS011;7218;51.480;7.006;2023-03-01T11:03:16;8.07;;;4.90;;
14268;SDS011;7218;51.480;7.006;2023-03-01T11:05:53;5.80;;;4.53;;
14268;SDS011;7218;51.480;7.006;2023-03-01T11:11:32;5.75;;;4.28;;
14268;SDS011;7218;51.480;7.006;2023-03-01T11:14:00;7.30;;;4.57;;
14268;SDS011;7218;51.480;7.006;2023-03-01T11:16:33;5.82;;;4.90;;
14268;SDS011;7218;51.480;7.006;2023-03-01T11:19:06;7.55;;;4.80;;
14268;SDS011;7218;51.480;7.006;2023-03-01T11:21:41;5.10;;;4.05;;
14268;SDS011;7218;51.480;7.006;2023-03-01T11:24:15;9.07;;;4.70;;
14268;SDS011;7218;51.480;7.006;2023-03-01T11:26:44;5.38;;;4.63;;
14268;SDS011;7218;51.480;7.006;2023-03-01T11:29:17;7.78;;;5.00;;
14268;SDS011;7218;51.480;7.006;2023-03-01T11:31:54;6.40;;;4.60;;
14268;SDS011;7218;51.480;7.006;2023-03-01T11:34:27;5.70;;;4.55;;
14268;SDS011;7218;51.480;7.006;2023-03-01T11:37:00;5.78;;;4.60;;
14268;SDS011;7218;51.480;7.006;2023-03-01T11:39:36;6.07;;;4.90;;
14268;SDS011;7218;51.480;7.006;2023-03-01T11:42:15;7.13;;;5.30;;
14268;SDS011;7218;51.480;7.006;2023-03-01T11:44:46;6.78;;;4.78;;
14268;SDS011;7218;51.480;7.006;2023-03-01T11:47:19;5.93;;;4.70;;
14268;SDS011;7218;51.480;7.006;2023-03-01T11:50:12;5.75;;;4.47;;
14268;SDS011;7218;51.480;7.006;2023-03-01T11:52:52;5.95;;;4.68;;
14268;SDS011;7218;51.480;7.006;2023-03-01T11:55:36;5.35;;;4.85;;
14268;SDS011;7218;51.480;7.006;2023-03-01T11:58:19;6.78;;;4.93;;
14268;SDS011;7218;51.480;7.006;2023-03-01T12:01:07;5.22;;;4.60;;
14268;SDS011;7218;51.480;7.006;2023-03-01T12:03:46;5.65;;;4.53;;
14268;SDS011;7218;51.480;7.006;2023-03-01T12:06:28;6.03;;;4.60;;
14268;SDS011;7218;51.480;7.006;2023-03-01T12:09:09;6.22;;;4.70;;
14268;SDS011;7218;51.480;7.006;2023-03-01T12:11:52;6.72;;;4.93;;
14268;SDS011;7218;51.480;7.006;2023-03-01T12:14:37;5.70;;;4.75;;
14268;SDS011;7218;51.480;7.006;2023-03-01T12:17:26;5.95;;;4.28;;
14268;SDS011;7218;51.480;7.006;2023-03-01T12:20:17;6.78;;;4.60;;
14268;SDS011;7218;51.480;7.006;2023-03-01T12:22:56;5.57;;;4.68;;
14268;SDS011;7218;51.480;7.006;2023-03-01T12:25:35;5.40;;;4.60;;
14268;SDS011;7218;51.480;7.006;2023-03-01T12:28:14;6.70;;;5.07;;
14268;SDS011;7218;51.480;7.006;2023-03-01T12:30:56;8.07;;;5.38;;
14268;SDS011;7218;51.480;7.006;2023-03-01T12:33:37;5.70;;;4.93;;
14268;SDS011;7218;51.480;7.006;2023-03-01T12:36:15;5.95;;;5.18;;
14268;SDS011;7218;51.480;7.006;2023-03-01T12:38:57;6.50;;;5.13;;
14268;SDS011;7218;51.480;7.006;2023-03-01T12:41:42;10.68;;;6.85;;
14268;SDS011;7218;51.480;7.006;2023-03-01T12:44:22;8.02;;;5.82;;
14268;SDS011;7218;51.480;7.006;2023-03-01T12:47:04;8.93;;;7.10;;
14268;SDS011;7218;51.480;7.006;2023-03-01T12:49:38;6.43;;;5.75;;
14268;SDS011;7218;51.480;7.006;2023-03-01T12:52:09;6.53;;;5.82;;
14268;SDS011;7218;51.480;7.006;2023-03-01T12:54:41;7.50;;;5.53;;
14268;SDS011;7218;51.480;7.006;2023-03-01T12:57:09;7.05;;;5.50;;
14268;SDS011;7218;51.480;7.006;2023-03-01T12:59:42;7.38;;;5.35;;
14268;SDS011;7218;51.480;7.006;2023-03-01T13:02:21;9.30;;;5.80;;
14268;SDS011;7218;51.480;7.006;2023-03-01T13:04:52;6.15;;;5.13;;
14268;SDS011;7218;51.480;7.006;2023-03-01T13:07:29;7.60;;;5.47;;
14268;SDS011;7218;51.480;7.006;2023-03-01T13:10:15;7.53;;;5.30;;
14268;SDS011;7218;51.480;7.006;2023-03-01T13:12:51;9.35;;;5.20;;
14268;SDS011;7218;51.480;7.006;2023-03-01T13:15:27;6.93;;;5.70;;
14268;SDS011;7218;51.480;7.006;2023-03-01T13:17:57;6.95;;;5.70;;
14268;SDS011;7218;51.480;7.006;2023-03-01T13:20:25;9.10;;;5.70;;
14268;SDS011;7218;51.480;7.006;2023-03-01T13:23:09;7.18;;;5.50;;
14268;SDS011;7218;51.480;7.006;2023-03-01T13:28:38;6.65;;;5.63;;
14268;SDS011;7218;51.480;7.006;2023-03-01T13:34:44;5.95;;;5.05;;
14268;SDS011;7218;51.480;7.006;2023-03-01T13:37:19;5.57;;;4.97;;
14268;SDS011;7218;51.480;7.006;2023-03-01T13:39:47;8.18;;;5.22;;
14268;SDS011;7218;51.480;7.006;2023-03-01T13:42:31;7.85;;;5.80;;
14268;SDS011;7218;51.480;7.006;2023-03-01T13:45:02;7.10;;;5.22;;
14268;SDS011;7218;51.480;7.006;2023-03-01T13:47:32;7.55;;;5.78;;
14268;SDS011;7218;51.480;7.006;2023-03-01T13:50:03;6.43;;;5.70;;
14268;SDS011;7218;51.480;7.006;2023-03-01T13:52:34;7.53;;;5.57;;
14268;SDS011;7218;51.480;7.006;2023-03-01T13:55:05;7.07;;;5.38;;
14268;SDS011;7218;51.480;7.006;2023-03-01T13:57:43;6.00;;;5.40;;
14268;SDS011;7218;51.480;7.006;2023-03-01T14:00:24;6.55;;;5.72;;
14268;SDS011;7218;51.480;7.006;2023-03-01T14:03:00;7.97;;;5.35;;
14268;SDS011;7218;51.480;7.006;2023-03-01T14:05:30;7.97;;;5.47;;
14268;SDS011;7218;51.480;7.006;2023-03-01T14:07:56;6.53;;;5.20;;
14268;SDS011;7218;51.480;7.006;2023-03-01T14:10:23;8.10;;;5.93;;
14268;SDS011;7218;51.480;7.006;2023-03-01T14:12:54;8.23;;;6.13;;
14268;SDS011;7218;51.480;7.006;2023-03-01T14:15:31;7.45;;;6.45;;
14268;SDS011;7218;51.480;7.006;2023-03-01T14:18:02;7.80;;;6.05;;
14268;SDS011;7218;51.480;7.006;2023-03-01T14:20:39;6.80;;;6.10;;
14268;SDS011;7218;51.480;7.006;2023-03-01T14:23:09;8.38;;;5.90;;
14268;SDS011;7218;51.480;7.006;2023-03-01T14:25:37;7.28;;;5.65;;
14268;SDS011;7218;51.480;7.006;2023-03-01T14:28:12;7.78;;;5.32;;
14268;SDS011;7218;51.480;7.006;2023-03-01T14:30:42;8.23;;;5.68;;
14268;SDS011;7218;51.480;7.006;2023-03-01T14:33:21;6.15;;;5.55;;
14268;SDS011;7218;51.480;7.006;2023-03-01T14:35:53;6.60;;;5.88;;
14268;SDS011;7218;51.480;7.006;2023-03-01T14:38:22;6.55;;;5.60;;
14268;SDS011;7218;51.480;7.006;2023-03-01T14:40:54;6.68;;;5.95;;
14268;SDS011;7218;51.480;7.006;2023-03-01T14:43:24;6.90;;;6.20;;
14268;SDS011;7218;51.480;7.006;2023-03-01T14:45:51;7.60;;;6.10;;
14268;SDS011;7218;51.480;7.006;2023-03-01T14:48:18;6.60;;;5.90;;
14268;SDS011;7218;51.480;7.006;2023-03-01T14:50:45;9.93;;;6.25;;
14268;SDS011;7218;51.480;7.006;2023-03-01T14:53:15;6.28;;;5.68;;
14268;SDS011;7218;51.480;7.006;2023-03-01T14:55:45;7.93;;;6.05;;
14268;SDS011;7218;51.480;7.006;2023-03-01T14:58:15;6.72;;;6.05;;
14268;SDS011;7218;51.480;7.006;2023-03-01T15:00:46;8.05;;;6.07;;
14268;SDS011;7218;51.480;7.006;2023-03-01T15:03:17;7.03;;;5.57;;
14268;SDS011;7218;51.480;7.006;2023-03-01T15:05:50;7.47;;;6.10;;
14268;SDS011;7218;51.480;7.006;2023-03-01T15:08:20;6.40;;;5.72;;
14268;SDS011;7218;51.480;7.006;2023-03-01T15:10:56;6.78;;;6.10;;
14268;SDS011;7218;51.480;7.006;2023-03-01T15:13:39;7.30;;;5.32;;
14268;SDS011;7218;51.480;7.006;2023-03-01T15:16:11;9.30;;;6.00;;
14268;SDS011;7218;51.480;7.006;2023-03-01T15:18:43;6.40;;;5.65;;
14268;SDS011;7218;51.480;7.006;2023-03-01T15:21:14;6.80;;;6.10;;
14268;SDS011;7218;51.480;7.006;2023-03-01T15:23:47;7.30;;;5.50;;
14268;SDS011;7218;51.480;7.006;2023-03-01T15:26:22;6.30;;;5.38;;